sensor_id;sensor_type;location;lat;lon;timestamp;P1;durP1;ratioP1;P2;durP2;ratioP2
7479;SDS011;3781;42.272;22.658;2023-04-25T00:02:20;0.53;;;0.30;;
7479;SDS011;3781;42.272;22.658;2023-04-25T00:04:48;0.20;;;0.20;;
7479;SDS011;3781;42.272;22.658;2023-04-25T00:07:15;0.00;;;0.00;;
7479;SDS011;3781;42.272;22.658;2023-04-25T00:09:42;0.30;;;0.20;;
7479;SDS011;3781;42.272;22.658;2023-04-25T00:12:09;0.03;;;0.03;;
7479;SDS011;3781;42.272;22.658;2023-04-25T00:14:36;0.17;;;0.17;;
7479;SDS011;3781;42.272;22.658;2023-04-25T00:17:03;0.27;;;0.27;;
7479;SDS011;3781;42.272;22.658;2023-04-25T00:19:30;0.47;;;0.47;;
7479;SDS011;3781;42.272;22.658;2023-04-25T00:21:59;0.10;;;0.07;;
7479;SDS011;3781;42.272;22.658;2023-04-25T00:24:25;0.00;;;0.00;;
7479;SDS011;3781;42.272;22.658;2023-04-25T00:26:52;0.93;;;0.53;;
7479;SDS011;3781;42.272;22.658;2023-04-25T00:29:19;1.33;;;0.77;;
7479;SDS011;3781;42.272;22.658;2023-04-25T00:31:46;1.03;;;0.87;;
7479;SDS011;3781;42.272;22.658;2023-04-25T00:34:13;0.00;;;0.00;;
7479;SDS011;3781;42.272;22.658;2023-04-25T00:36:39;0.00;;;0.00;;
7479;SDS011;3781;42.272;22.658;2023-04-25T00:39:08;0.47;;;0.33;;
7479;SDS011;3781;42.272;22.658;2023-04-25T00:41:34;0.40;;;0.13;;
7479;SDS011;3781;42.272;22.658;2023-04-25T00:44:02;0.20;;;0.20;;
7479;SDS011;3781;42.272;22.658;2023-04-25T00:46:29;0.23;;;0.23;;
7479;SDS011;3781;42.272;22.658;2023-04-25T00:48:57;0.03;;;0.03;;
7479;SDS011;3781;42.272;22.658;2023-04-25T00:51:24;0.00;;;0.00;;
7479;SDS011;3781;42.272;22.658;2023-04-25T00:53:52;0.20;;;0.20;;
7479;SDS011;3781;42.272;22.658;2023-04-25T00:56:21;0.67;;;0.30;;
7479;SDS011;3781;42.272;22.658;2023-04-25T00:58:48;0.20;;;0.20;;
7479;SDS011;3781;42.272;22.658;2023-04-25T01:01:16;0.10;;;0.10;;
7479;SDS011;3781;42.272;22.658;2023-04-25T01:03:43;0.00;;;0.00;;
7479;SDS011;3781;42.272;22.658;2023-04-25T01:06:15;0.43;;;0.43;;
7479;SDS011;3781;42.272;22.658;2023-04-25T01:08:42;0.17;;;0.17;;
7479;SDS011;3781;42.272;22.658;2023-04-25T01:11:09;0.03;;;0.03;;
7479;SDS011;3781;42.272;22.658;2023-04-25T01:13:38;0.30;;;0.30;;
7479;SDS011;3781;42.272;22.658;2023-04-25T01:16:04;0.23;;;0.17;;
7479;SDS011;3781;42.272;22.658;2023-04-25T01:18:31;0.60;;;0.60;;
7479;SDS011;3781;42.272;22.658;2023-04-25T01:21:03;1.60;;;0.73;;
7479;SDS011;3781;42.272;22.658;2023-04-25T01:23:33;0.13;;;0.13;;
7479;SDS011;3781;42.272;22.658;2023-04-25T01:26:00;0.33;;;0.33;;
7479;SDS011;3781;42.272;22.658;2023-04-25T01:28:27;0.33;;;0.33;;
7479;SDS011;3781;42.272;22.658;2023-04-25T01:30:55;0.27;;;0.27;;
7479;SDS011;3781;42.272;22.658;2023-04-25T01:33:23;0.90;;;0.30;;
7479;SDS011;3781;42.272;22.658;2023-04-25T01:35:50;0.37;;;0.37;;
7479;SDS011;3781;42.272;22.658;2023-04-25T01:38:18;1.37;;;0.80;;
7479;SDS011;3781;42.272;22.658;2023-04-25T01:40:45;0.20;;;0.20;;
7479;SDS011;3781;42.272;22.658;2023-04-25T01:43:12;0.13;;;0.13;;
7479;SDS011;3781;42.272;22.658;2023-04-25T01:45:39;0.83;;;0.70;;
7479;SDS011;3781;42.272;22.658;2023-04-25T01:48:06;0.20;;;0.20;;
7479;SDS011;3781;42.272;22.658;2023-04-25T01:50:33;0.53;;;0.47;;
7479;SDS011;3781;42.272;22.658;2023-04-25T01:53:00;0.27;;;0.27;;
7479;SDS011;3781;42.272;22.658;2023-04-25T01:55:29;0.50;;;0.50;;
7479;SDS011;3781;42.272;22.658;2023-04-25T01:57:56;0.37;;;0.37;;
7479;SDS011;3781;42.272;22.658;2023-04-25T02:00:25;0.87;;;0.87;;
7479;SDS011;3781;42.272;22.658;2023-04-25T02:02:52;0.57;;;0.57;;
7479;SDS011;3781;42.272;22.658;2023-04-25T02:05:19;0.60;;;0.60;;
7479;SDS011;3781;42.272;22.658;2023-04-25T02:07:46;1.23;;;0.93;;
7479;SDS011;3781;42.272;22.658;2023-04-25T02:10:13;2.10;;;1.53;;
7479;SDS011;3781;42.272;22.658;2023-04-25T02:12:42;0.57;;;0.57;;
7479;SDS011;3781;42.272;22.658;2023-04-25T02:15:09;0.27;;;0.27;;
7479;SDS011;3781;42.272;22.658;2023-04-25T02:17:37;1.77;;;1.33;;
7479;SDS011;3781;42.272;22.658;2023-04-25T02:20:05;3.33;;;1.07;;
7479;SDS011;3781;42.272;22.658;2023-04-25T02:22:32;1.20;;;1.20;;
7479;SDS011;3781;42.272;22.658;2023-04-25T02:25:00;1.83;;;0.50;;
7479;SDS011;3781;42.272;22.658;2023-04-25T02:27:27;1.40;;;0.43;;
7479;SDS011;3781;42.272;22.658;2023-04-25T02:29:55;0.43;;;0.43;;
7479;SDS011;3781;42.272;22.658;2023-04-25T02:32:22;0.00;;;0.00;;
7479;SDS011;3781;42.272;22.658;2023-04-25T02:34:49;1.10;;;1.00;;
7479;SDS011;3781;42.272;22.658;2023-04-25T02:37:16;0.70;;;0.45;;
7479;SDS011;3781;42.272;22.658;2023-04-25T02:39:42;0.20;;;0.20;;
7479;SDS011;3781;42.272;22.658;2023-04-25T02:42:09;0.30;;;0.30;;
7479;SDS011;3781;42.272;22.658;2023-04-25T02:44:36;0.10;;;0.10;;
7479;SDS011;3781;42.272;22.658;2023-04-25T02:47:04;0.50;;;0.50;;
7479;SDS011;3781;42.272;22.658;2023-04-25T02:49:31;0.70;;;0.70;;
7479;SDS011;3781;42.272;22.658;2023-04-25T02:51:58;0.60;;;0.60;;
7479;SDS011;3781;42.272;22.658;2023-04-25T02:54:24;1.10;;;1.00;;
7479;SDS011;3781;42.272;22.658;2023-04-25T02:56:51;0.10;;;0.10;;
7479;SDS011;3781;42.272;22.658;2023-04-25T02:59:18;0.70;;;0.70;;
7479;SDS011;3781;42.272;22.658;2023-04-25T03:01:45;0.40;;;0.40;;
7479;SDS011;3781;42.272;22.658;2023-04-25T03:04:13;1.50;;;0.90;;
7479;SDS011;3781;42.272;22.658;2023-04-25T03:06:40;0.60;;;0.60;;
7479;SDS011;3781;42.272;22.658;2023-04-25T03:09:07;0.93;;;0.53;;
7479;SDS011;3781;42.272;22.658;2023-04-25T03:11:33;6.20;;;1.10;;
7479;SDS011;3781;42.272;22.658;2023-04-25T03:14:01;0.35;;;0.35;;
7479;SDS011;3781;42.272;22.658;2023-04-25T03:16:28;0.10;;;0.10;;
7479;SDS011;3781;42.272;22.658;2023-04-25T03:18:54;1.50;;;1.07;;
7479;SDS011;3781;42.272;22.658;2023-04-25T03:21:23;1.10;;;1.10;;
7479;SDS011;3781;42.272;22.658;2023-04-25T03:23:50;4.00;;;0.60;;
7479;SDS011;3781;42.272;22.658;2023-04-25T03:26:17;1.60;;;1.23;;
7479;SDS011;3781;42.272;22.658;2023-04-25T03:28:43;3.13;;;1.60;;
7479;SDS011;3781;42.272;22.658;2023-04-25T03:31:12;2.63;;;1.57;;
7479;SDS011;3781;42.272;22.658;2023-04-25T03:33:40;0.30;;;0.30;;
7479;SDS011;3781;42.272;22.658;2023-04-25T03:36:07;0.80;;;0.80;;
7479;SDS011;3781;42.272;22.658;2023-04-25T03:38:36;2.03;;;1.07;;
7479;SDS011;3781;42.272;22.658;2023-04-25T03:41:02;2.17;;;1.50;;
7479;SDS011;3781;42.272;22.658;2023-04-25T03:43:29;1.30;;;0.97;;
7479;SDS011;3781;42.272;22.658;2023-04-25T03:45:56;5.07;;;1.33;;
7479;SDS011;3781;42.272;22.658;2023-04-25T03:48:25;0.97;;;0.80;;
7479;SDS011;3781;42.272;22.658;2023-04-25T03:50:52;0.10;;;0.10;;
7479;SDS011;3781;42.272;22.658;2023-04-25T03:53:19;1.13;;;0.30;;
7479;SDS011;3781;42.272;22.658;2023-04-25T03:55:47;0.63;;;0.63;;
7479;SDS011;3781;42.272;22.658;2023-04-25T03:58:14;0.30;;;0.30;;
7479;SDS011;3781;42.272;22.658;2023-04-25T04:00:41;1.30;;;1.07;;
7479;SDS011;3781;42.272;22.658;2023-04-25T04:03:08;0.63;;;0.63;;
7479;SDS011;3781;42.272;22.658;2023-04-25T04:05:36;1.03;;;0.93;;
7479;SDS011;3781;42.272;22.658;2023-04-25T04:08:05;1.43;;;0.23;;
7479;SDS011;3781;42.272;22.658;2023-04-25T04:10:32;1.73;;;1.33;;
7479;SDS011;3781;42.272;22.658;2023-04-25T04:13:01;2.33;;;1.10;;
7479;SDS011;3781;42.272;22.658;2023-04-25T04:15:28;1.40;;;1.13;;
7479;SDS011;3781;42.272;22.658;2023-04-25T04:17:58;1.00;;;1.00;;
7479;SDS011;3781;42.272;22.658;2023-04-25T04:20:28;1.47;;;1.03;;
7479;SDS011;3781;42.272;22.658;2023-04-25T04:22:55;5.80;;;2.37;;
7479;SDS011;3781;42.272;22.658;2023-04-25T04:25:22;2.03;;;1.87;;
7479;SDS011;3781;42.272;22.658;2023-04-25T04:27:49;1.23;;;1.13;;
7479;SDS011;3781;42.272;22.658;2023-04-25T04:30:20;1.07;;;1.00;;
7479;SDS011;3781;42.272;22.658;2023-04-25T04:32:49;0.80;;;0.50;;
7479;SDS011;3781;42.272;22.658;2023-04-25T04:35:16;0.50;;;0.50;;
7479;SDS011;3781;42.272;22.658;2023-04-25T04:37:43;1.80;;;0.60;;
7479;SDS011;3781;42.272;22.658;2023-04-25T04:40:11;1.60;;;1.23;;
7479;SDS011;3781;42.272;22.658;2023-04-25T04:42:40;0.23;;;0.23;;
7479;SDS011;3781;42.272;22.658;2023-04-25T04:45:07;1.03;;;1.03;;
7479;SDS011;3781;42.272;22.658;2023-04-25T04:47:37;0.20;;;0.20;;
7479;SDS011;3781;42.272;22.658;2023-04-25T04:50:05;0.47;;;0.47;;
7479;SDS011;3781;42.272;22.658;2023-04-25T04:52:33;1.53;;;0.33;;
7479;SDS011;3781;42.272;22.658;2023-04-25T04:55:00;2.70;;;0.47;;
7479;SDS011;3781;42.272;22.658;2023-04-25T04:57:28;1.60;;;0.80;;
7479;SDS011;3781;42.272;22.658;2023-04-25T04:59:56;0.40;;;0.23;;
7479;SDS011;3781;42.272;22.658;2023-04-25T05:02:23;0.80;;;0.80;;
7479;SDS011;3781;42.272;22.658;2023-04-25T05:04:51;1.90;;;1.77;;
7479;SDS011;3781;42.272;22.658;2023-04-25T05:07:18;0.47;;;0.47;;
7479;SDS011;3781;42.272;22.658;2023-04-25T05:09:45;1.33;;;1.00;;
7479;SDS011;3781;42.272;22.658;2023-04-25T05:12:12;1.33;;;1.10;;
7479;SDS011;3781;42.272;22.658;2023-04-25T05:14:38;0.60;;;0.60;;
7479;SDS011;3781;42.272;22.658;2023-04-25T05:17:05;2.00;;;1.83;;
7479;SDS011;3781;42.272;22.658;2023-04-25T05:19:33;1.23;;;1.13;;
7479;SDS011;3781;42.272;22.658;2023-04-25T05:22:02;3.03;;;1.67;;
7479;SDS011;3781;42.272;22.658;2023-04-25T05:24:28;1.53;;;1.43;;
7479;SDS011;3781;42.272;22.658;2023-04-25T05:26:55;0.63;;;0.63;;
7479;SDS011;3781;42.272;22.658;2023-04-25T05:29:22;0.97;;;0.97;;
7479;SDS011;3781;42.272;22.658;2023-04-25T05:31:49;0.60;;;0.40;;
7479;SDS011;3781;42.272;22.658;2023-04-25T05:34:16;1.20;;;0.73;;
7479;SDS011;3781;42.272;22.658;2023-04-25T05:36:43;0.83;;;0.70;;
7479;SDS011;3781;42.272;22.658;2023-04-25T05:39:14;0.47;;;0.47;;
7479;SDS011;3781;42.272;22.658;2023-04-25T05:41:41;0.37;;;0.37;;
7479;SDS011;3781;42.272;22.658;2023-04-25T05:44:08;0.67;;;0.30;;
7479;SDS011;3781;42.272;22.658;2023-04-25T05:46:35;0.97;;;0.60;;
7479;SDS011;3781;42.272;22.658;2023-04-25T05:49:02;0.33;;;0.33;;
7479;SDS011;3781;42.272;22.658;2023-04-25T05:51:29;0.33;;;0.20;;
7479;SDS011;3781;42.272;22.658;2023-04-25T05:53:56;1.07;;;0.60;;
7479;SDS011;3781;42.272;22.658;2023-04-25T05:56:24;0.97;;;0.60;;
7479;SDS011;3781;42.272;22.658;2023-04-25T05:58:51;3.00;;;2.07;;
7479;SDS011;3781;42.272;22.658;2023-04-25T06:01:18;1.87;;;1.47;;
7479;SDS011;3781;42.272;22.658;2023-04-25T06:03:45;0.70;;;0.70;;
7479;SDS011;3781;42.272;22.658;2023-04-25T06:06:11;1.43;;;1.40;;
7479;SDS011;3781;42.272;22.658;2023-04-25T06:08:41;1.93;;;1.83;;
7479;SDS011;3781;42.272;22.658;2023-04-25T06:11:08;1.30;;;1.20;;
7479;SDS011;3781;42.272;22.658;2023-04-25T06:13:36;2.97;;;2.17;;
7479;SDS011;3781;42.272;22.658;2023-04-25T06:16:03;1.60;;;1.50;;
7479;SDS011;3781;42.272;22.658;2023-04-25T06:18:30;3.90;;;1.67;;
7479;SDS011;3781;42.272;22.658;2023-04-25T06:20:57;1.27;;;1.17;;
7479;SDS011;3781;42.272;22.658;2023-04-25T06:23:24;2.10;;;1.13;;
7479;SDS011;3781;42.272;22.658;2023-04-25T06:25:50;5.83;;;4.57;;
7479;SDS011;3781;42.272;22.658;2023-04-25T06:28:17;2.10;;;1.93;;
7479;SDS011;3781;42.272;22.658;2023-04-25T06:30:48;1.83;;;1.20;;
7479;SDS011;3781;42.272;22.658;2023-04-25T06:33:15;1.83;;;1.37;;
7479;SDS011;3781;42.272;22.658;2023-04-25T06:35:42;2.53;;;0.80;;
7479;SDS011;3781;42.272;22.658;2023-04-25T06:38:08;0.60;;;0.60;;
7479;SDS011;3781;42.272;22.658;2023-04-25T06:40:35;1.10;;;1.00;;
7479;SDS011;3781;42.272;22.658;2023-04-25T06:43:02;1.80;;;1.00;;
7479;SDS011;3781;42.272;22.658;2023-04-25T06:45:29;1.30;;;1.00;;
7479;SDS011;3781;42.272;22.658;2023-04-25T06:47:57;2.60;;;1.63;;
7479;SDS011;3781;42.272;22.658;2023-04-25T06:50:24;2.00;;;0.90;;
7479;SDS011;3781;42.272;22.658;2023-04-25T06:52:50;1.17;;;1.07;;
7479;SDS011;3781;42.272;22.658;2023-04-25T06:55:17;1.70;;;1.30;;
7479;SDS011;3781;42.272;22.658;2023-04-25T06:57:44;0.70;;;0.70;;
7479;SDS011;3781;42.272;22.658;2023-04-25T07:00:14;2.55;;;1.55;;
7479;SDS011;3781;42.272;22.658;2023-04-25T07:02:50;1.33;;;1.30;;
7479;SDS011;3781;42.272;22.658;2023-04-25T07:05:18;0.83;;;0.83;;
7479;SDS011;3781;42.272;22.658;2023-04-25T07:07:45;1.33;;;1.17;;
7479;SDS011;3781;42.272;22.658;2023-04-25T07:10:12;0.33;;;0.33;;
7479;SDS011;3781;42.272;22.658;2023-04-25T07:12:38;1.23;;;1.13;;
7479;SDS011;3781;42.272;22.658;2023-04-25T07:15:06;0.93;;;0.83;;
7479;SDS011;3781;42.272;22.658;2023-04-25T07:17:35;0.97;;;0.77;;
7479;SDS011;3781;42.272;22.658;2023-04-25T07:20:01;0.70;;;0.70;;
7479;SDS011;3781;42.272;22.658;2023-04-25T07:22:32;0.20;;;0.20;;
7479;SDS011;3781;42.272;22.658;2023-04-25T07:24:59;0.17;;;0.17;;
7479;SDS011;3781;42.272;22.658;2023-04-25T07:27:26;0.00;;;0.00;;
7479;SDS011;3781;42.272;22.658;2023-04-25T07:29:53;0.13;;;0.13;;
7479;SDS011;3781;42.272;22.658;2023-04-25T07:32:20;0.10;;;0.10;;
7479;SDS011;3781;42.272;22.658;2023-04-25T07:34:46;0.30;;;0.30;;
7479;SDS011;3781;42.272;22.658;2023-04-25T07:37:13;0.00;;;0.00;;
7479;SDS011;3781;42.272;22.658;2023-04-25T07:39:42;0.10;;;0.10;;
7479;SDS011;3781;42.272;22.658;2023-04-25T07:42:08;0.50;;;0.40;;
7479;SDS011;3781;42.272;22.658;2023-04-25T07:44:35;0.63;;;0.10;;
7479;SDS011;3781;42.272;22.658;2023-04-25T07:47:04;0.00;;;0.00;;
7479;SDS011;3781;42.272;22.658;2023-04-25T07:49:32;0.00;;;0.00;;
7479;SDS011;3781;42.272;22.658;2023-04-25T07:52:02;1.30;;;0.40;;
7479;SDS011;3781;42.272;22.658;2023-04-25T07:54:30;0.00;;;0.00;;
7479;SDS011;3781;42.272;22.658;2023-04-25T07:56:58;0.00;;;0.00;;
7479;SDS011;3781;42.272;22.658;2023-04-25T07:59:25;0.00;;;0.00;;
7479;SDS011;3781;42.272;22.658;2023-04-25T08:01:52;0.10;;;0.10;;
7479;SDS011;3781;42.272;22.658;2023-04-25T08:04:19;0.00;;;0.00;;
7479;SDS011;3781;42.272;22.658;2023-04-25T08:06:46;0.43;;;0.43;;
7479;SDS011;3781;42.272;22.658;2023-04-25T08:09:13;0.30;;;0.00;;
7479;SDS011;3781;42.272;22.658;2023-04-25T08:11:40;0.10;;;0.10;;
7479;SDS011;3781;42.272;22.658;2023-04-25T08:14:09;0.00;;;0.00;;
7479;SDS011;3781;42.272;22.658;2023-04-25T08:16:36;0.37;;;0.37;;
7479;SDS011;3781;42.272;22.658;2023-04-25T08:19:03;0.23;;;0.23;;
7479;SDS011;3781;42.272;22.658;2023-04-25T08:21:30;0.10;;;0.10;;
7479;SDS011;3781;42.272;22.658;2023-04-25T08:23:57;0.10;;;0.10;;
7479;SDS011;3781;42.272;22.658;2023-04-25T08:28:51;0.33;;;0.17;;
7479;SDS011;3781;42.272;22.658;2023-04-25T08:31:19;0.10;;;0.10;;
7479;SDS011;3781;42.272;22.658;2023-04-25T08:33:46;0.00;;;0.00;;
7479;SDS011;3781;42.272;22.658;2023-04-25T08:36:14;0.00;;;0.00;;
7479;SDS011;3781;42.272;22.658;2023-04-25T08:38:41;0.00;;;0.00;;
7479;SDS011;3781;42.272;22.658;2023-04-25T08:41:08;0.10;;;0.00;;
7479;SDS011;3781;42.272;22.658;2023-04-25T08:43:37;0.10;;;0.10;;
7479;SDS011;3781;42.272;22.658;2023-04-25T08:46:04;0.10;;;0.10;;
7479;SDS011;3781;42.272;22.658;2023-04-25T08:48:33;0.20;;;0.20;;
7479;SDS011;3781;42.272;22.658;2023-04-25T08:51:01;0.13;;;0.07;;
7479;SDS011;3781;42.272;22.658;2023-04-25T08:53:29;0.10;;;0.10;;
7479;SDS011;3781;42.272;22.658;2023-04-25T08:55:57;0.27;;;0.27;;
7479;SDS011;3781;42.272;22.658;2023-04-25T08:58:26;0.10;;;0.10;;
7479;SDS011;3781;42.272;22.658;2023-04-25T09:00:54;0.00;;;0.00;;
7479;SDS011;3781;42.272;22.658;2023-04-25T09:03:21;0.00;;;0.00;;
7479;SDS011;3781;42.272;22.658;2023-04-25T09:05:49;0.30;;;0.17;;
7479;SDS011;3781;42.272;22.658;2023-04-25T09:08:17;0.00;;;0.00;;
7479;SDS011;3781;42.272;22.658;2023-04-25T09:10:44;1.50;;;0.00;;
7479;SDS011;3781;42.272;22.658;2023-04-25T09:13:12;0.10;;;0.10;;
7479;SDS011;3781;42.272;22.658;2023-04-25T09:15:46;0.40;;;0.40;;
7479;SDS011;3781;42.272;22.658;2023-04-25T09:18:22;0.00;;;0.00;;
7479;SDS011;3781;42.272;22.658;2023-04-25T09:20:52;0.10;;;0.00;;
7479;SDS011;3781;42.272;22.658;2023-04-25T09:23:20;0.00;;;0.00;;
7479;SDS011;3781;42.272;22.658;2023-04-25T09:25:47;0.20;;;0.20;;
7479;SDS011;3781;42.272;22.658;2023-04-25T09:28:14;0.10;;;0.10;;
7479;SDS011;3781;42.272;22.658;2023-04-25T09:30:41;0.67;;;0.00;;
7479;SDS011;3781;42.272;22.658;2023-04-25T09:33:10;0.10;;;0.10;;
7479;SDS011;3781;42.272;22.658;2023-04-25T09:35:38;0.20;;;0.20;;
7479;SDS011;3781;42.272;22.658;2023-04-25T09:38:10;0.23;;;0.23;;
7479;SDS011;3781;42.272;22.658;2023-04-25T09:40:41;0.00;;;0.00;;
7479;SDS011;3781;42.272;22.658;2023-04-25T09:43:09;1.50;;;0.27;;
7479;SDS011;3781;42.272;22.658;2023-04-25T09:45:43;0.07;;;0.07;;
7479;SDS011;3781;42.272;22.658;2023-04-25T09:48:15;0.00;;;0.00;;
7479;SDS011;3781;42.272;22.658;2023-04-25T09:50:43;0.23;;;0.23;;
7479;SDS011;3781;42.272;22.658;2023-04-25T09:53:11;0.20;;;0.20;;
7479;SDS011;3781;42.272;22.658;2023-04-25T09:55:38;0.00;;;0.00;;
7479;SDS011;3781;42.272;22.658;2023-04-25T09:58:07;0.00;;;0.00;;
7479;SDS011;3781;42.272;22.658;2023-04-25T10:00:36;0.00;;;0.00;;
7479;SDS011;3781;42.272;22.658;2023-04-25T10:03:05;1.10;;;0.20;;
7479;SDS011;3781;42.272;22.658;2023-04-25T10:05:32;0.00;;;0.00;;
7479;SDS011;3781;42.272;22.658;2023-04-25T10:08:02;0.20;;;0.20;;
7479;SDS011;3781;42.272;22.658;2023-04-25T10:10:33;0.10;;;0.10;;
7479;SDS011;3781;42.272;22.658;2023-04-25T10:13:03;0.40;;;0.40;;
7479;SDS011;3781;42.272;22.658;2023-04-25T10:15:31;0.00;;;0.00;;
7479;SDS011;3781;42.272;22.658;2023-04-25T10:18:01;0.00;;;0.00;;
7479;SDS011;3781;42.272;22.658;2023-04-25T10:20:29;0.97;;;0.97;;
7479;SDS011;3781;42.272;22.658;2023-04-25T10:22:57;0.00;;;0.00;;
7479;SDS011;3781;42.272;22.658;2023-04-25T10:25:33;0.00;;;0.00;;
7479;SDS011;3781;42.272;22.658;2023-04-25T10:28:02;0.00;;;0.00;;
7479;SDS011;3781;42.272;22.658;2023-04-25T10:30:30;0.03;;;0.03;;
7479;SDS011;3781;42.272;22.658;2023-04-25T10:32:58;0.00;;;0.00;;
7479;SDS011;3781;42.272;22.658;2023-04-25T10:35:26;0.00;;;0.00;;
7479;SDS011;3781;42.272;22.658;2023-04-25T10:38:03;0.00;;;0.00;;
7479;SDS011;3781;42.272;22.658;2023-04-25T10:40:31;0.00;;;0.00;;
7479;SDS011;3781;42.272;22.658;2023-04-25T10:46:00;0.30;;;0.20;;
7479;SDS011;3781;42.272;22.658;2023-04-25T10:48:28;3.93;;;0.20;;
7479;SDS011;3781;42.272;22.658;2023-04-25T10:53:45;0.00;;;0.00;;
7479;SDS011;3781;42.272;22.658;2023-04-25T10:58:43;0.00;;;0.00;;
7479;SDS011;3781;42.272;22.658;2023-04-25T11:01:13;0.10;;;0.10;;
7479;SDS011;3781;42.272;22.658;2023-04-25T11:03:40;0.00;;;0.00;;
7479;SDS011;3781;42.272;22.658;2023-04-25T11:08:45;0.20;;;0.20;;
7479;SDS011;3781;42.272;22.658;2023-04-25T11:11:15;0.00;;;0.00;;
7479;SDS011;3781;42.272;22.658;2023-04-25T11:13:42;0.00;;;0.00;;
7479;SDS011;3781;42.272;22.658;2023-04-25T11:16:15;0.00;;;0.00;;
7479;SDS011;3781;42.272;22.658;2023-04-25T11:18:42;0.00;;;0.00;;
7479;SDS011;3781;42.272;22.658;2023-04-25T11:21:13;0.00;;;0.00;;
7479;SDS011;3781;42.272;22.658;2023-04-25T11:23:39;0.10;;;0.10;;
7479;SDS011;3781;42.272;22.658;2023-04-25T11:26:07;0.00;;;0.00;;
7479;SDS011;3781;42.272;22.658;2023-04-25T11:28:34;0.10;;;0.10;;
7479;SDS011;3781;42.272;22.658;2023-04-25T11:31:02;0.07;;;0.07;;
7479;SDS011;3781;42.272;22.658;2023-04-25T11:33:32;0.03;;;0.03;;
7479;SDS011;3781;42.272;22.658;2023-04-25T11:35:58;1.00;;;0.23;;
7479;SDS011;3781;42.272;22.658;2023-04-25T11:38:25;0.10;;;0.10;;
7479;SDS011;3781;42.272;22.658;2023-04-25T11:40:53;0.03;;;0.03;;
7479;SDS011;3781;42.272;22.658;2023-04-25T11:43:21;0.10;;;0.03;;
7479;SDS011;3781;42.272;22.658;2023-04-25T11:45:48;0.10;;;0.10;;
7479;SDS011;3781;42.272;22.658;2023-04-25T11:48:16;0.17;;;0.17;;
7479;SDS011;3781;42.272;22.658;2023-04-25T11:50:45;0.10;;;0.10;;
7479;SDS011;3781;42.272;22.658;2023-04-25T11:53:11;0.10;;;0.10;;
7479;SDS011;3781;42.272;22.658;2023-04-25T11:55:38;0.00;;;0.00;;
7479;SDS011;3781;42.272;22.658;2023-04-25T11:58:05;0.00;;;0.00;;
7479;SDS011;3781;42.272;22.658;2023-04-25T12:00:33;0.00;;;0.00;;
7479;SDS011;3781;42.272;22.658;2023-04-25T12:03:00;0.00;;;0.00;;
7479;SDS011;3781;42.272;22.658;2023-04-25T12:05:28;0.00;;;0.00;;
7479;SDS011;3781;42.272;22.658;2023-04-25T12:07:59;0.10;;;0.10;;
7479;SDS011;3781;42.272;22.658;2023-04-25T12:10:36;0.73;;;0.20;;
7479;SDS011;3781;42.272;22.658;2023-04-25T12:13:17;1.13;;;0.63;;
7479;SDS011;3781;42.272;22.658;2023-04-25T12:15:45;0.50;;;0.37;;
7479;SDS011;3781;42.272;22.658;2023-04-25T12:18:12;0.10;;;0.10;;
7479;SDS011;3781;42.272;22.658;2023-04-25T12:20:38;0.00;;;0.00;;
7479;SDS011;3781;42.272;22.658;2023-04-25T12:23:07;0.00;;;0.00;;
7479;SDS011;3781;42.272;22.658;2023-04-25T12:25:34;0.30;;;0.10;;
7479;SDS011;3781;42.272;22.658;2023-04-25T12:28:10;2.83;;;0.30;;
7479;SDS011;3781;42.272;22.658;2023-04-25T12:30:51;0.03;;;0.03;;
7479;SDS011;3781;42.272;22.658;2023-04-25T12:33:20;0.83;;;0.20;;
7479;SDS011;3781;42.272;22.658;2023-04-25T12:35:46;0.00;;;0.00;;
7479;SDS011;3781;42.272;22.658;2023-04-25T12:38:21;1.17;;;0.47;;
7479;SDS011;3781;42.272;22.658;2023-04-25T12:40:49;0.43;;;0.43;;
7479;SDS011;3781;42.272;22.658;2023-04-25T12:43:15;0.30;;;0.30;;
7479;SDS011;3781;42.272;22.658;2023-04-25T12:45:42;0.30;;;0.30;;
7479;SDS011;3781;42.272;22.658;2023-04-25T12:48:09;0.30;;;0.30;;
7479;SDS011;3781;42.272;22.658;2023-04-25T12:50:36;0.83;;;0.20;;
7479;SDS011;3781;42.272;22.658;2023-04-25T12:53:03;0.20;;;0.20;;
7479;SDS011;3781;42.272;22.658;2023-04-25T12:55:31;0.47;;;0.20;;
7479;SDS011;3781;42.272;22.658;2023-04-25T12:57:58;0.20;;;0.00;;
7479;SDS011;3781;42.272;22.658;2023-04-25T13:00:25;0.00;;;0.00;;
7479;SDS011;3781;42.272;22.658;2023-04-25T13:02:52;0.05;;;0.05;;
7479;SDS011;3781;42.272;22.658;2023-04-25T13:05:19;0.30;;;0.30;;
7479;SDS011;3781;42.272;22.658;2023-04-25T13:07:46;1.13;;;0.40;;
7479;SDS011;3781;42.272;22.658;2023-04-25T13:10:13;0.00;;;0.00;;
7479;SDS011;3781;42.272;22.658;2023-04-25T13:12:41;0.10;;;0.10;;
7479;SDS011;3781;42.272;22.658;2023-04-25T13:15:08;0.13;;;0.13;;
7479;SDS011;3781;42.272;22.658;2023-04-25T13:17:36;0.00;;;0.00;;
7479;SDS011;3781;42.272;22.658;2023-04-25T13:20:03;0.27;;;0.27;;
7479;SDS011;3781;42.272;22.658;2023-04-25T13:22:33;0.10;;;0.10;;
7479;SDS011;3781;42.272;22.658;2023-04-25T13:25:01;0.07;;;0.07;;
7479;SDS011;3781;42.272;22.658;2023-04-25T13:27:29;0.10;;;0.10;;
7479;SDS011;3781;42.272;22.658;2023-04-25T13:29:59;0.00;;;0.00;;
7479;SDS011;3781;42.272;22.658;2023-04-25T13:32:26;0.40;;;0.40;;
7479;SDS011;3781;42.272;22.658;2023-04-25T13:34:53;0.25;;;0.15;;
7479;SDS011;3781;42.272;22.658;2023-04-25T13:37:21;0.00;;;0.00;;
7479;SDS011;3781;42.272;22.658;2023-04-25T13:39:49;0.40;;;0.35;;
7479;SDS011;3781;42.272;22.658;2023-04-25T13:42:16;0.43;;;0.43;;
7479;SDS011;3781;42.272;22.658;2023-04-25T13:44:43;1.93;;;1.40;;
7479;SDS011;3781;42.272;22.658;2023-04-25T13:47:12;1.00;;;1.00;;
7479;SDS011;3781;42.272;22.658;2023-04-25T13:49:38;0.53;;;0.27;;
7479;SDS011;3781;42.272;22.658;2023-04-25T13:52:05;0.63;;;0.63;;
7479;SDS011;3781;42.272;22.658;2023-04-25T13:54:33;0.57;;;0.57;;
7479;SDS011;3781;42.272;22.658;2023-04-25T13:57:00;0.27;;;0.20;;
7479;SDS011;3781;42.272;22.658;2023-04-25T13:59:27;0.30;;;0.30;;
7479;SDS011;3781;42.272;22.658;2023-04-25T14:01:54;0.73;;;0.37;;
7479;SDS011;3781;42.272;22.658;2023-04-25T14:04:22;0.97;;;0.57;;
7479;SDS011;3781;42.272;22.658;2023-04-25T14:06:51;0.00;;;0.00;;
7479;SDS011;3781;42.272;22.658;2023-04-25T14:09:18;0.40;;;0.40;;
7479;SDS011;3781;42.272;22.658;2023-04-25T14:11:50;1.40;;;0.60;;
7479;SDS011;3781;42.272;22.658;2023-04-25T14:14:20;0.83;;;0.40;;
7479;SDS011;3781;42.272;22.658;2023-04-25T14:16:48;0.50;;;0.50;;
7479;SDS011;3781;42.272;22.658;2023-04-25T14:19:16;1.10;;;1.03;;
7479;SDS011;3781;42.272;22.658;2023-04-25T14:21:45;0.77;;;0.77;;
7479;SDS011;3781;42.272;22.658;2023-04-25T14:24:11;2.70;;;0.67;;
7479;SDS011;3781;42.272;22.658;2023-04-25T14:26:43;1.10;;;1.00;;
7479;SDS011;3781;42.272;22.658;2023-04-25T14:29:09;1.53;;;1.40;;
7479;SDS011;3781;42.272;22.658;2023-04-25T14:31:37;1.70;;;1.60;;
7479;SDS011;3781;42.272;22.658;2023-04-25T14:34:06;1.17;;;0.90;;
7479;SDS011;3781;42.272;22.658;2023-04-25T14:36:35;3.53;;;2.50;;
7479;SDS011;3781;42.272;22.658;2023-04-25T14:39:03;5.77;;;2.83;;
7479;SDS011;3781;42.272;22.658;2023-04-25T14:41:31;3.43;;;2.93;;
7479;SDS011;3781;42.272;22.658;2023-04-25T14:43:58;5.63;;;2.67;;
7479;SDS011;3781;42.272;22.658;2023-04-25T14:46:25;7.73;;;3.07;;
7479;SDS011;3781;42.272;22.658;2023-04-25T14:48:52;4.40;;;2.53;;
7479;SDS011;3781;42.272;22.658;2023-04-25T14:51:20;1.97;;;1.73;;
7479;SDS011;3781;42.272;22.658;2023-04-25T14:53:47;2.33;;;1.13;;
7479;SDS011;3781;42.272;22.658;2023-04-25T14:56:16;1.80;;;1.70;;
7479;SDS011;3781;42.272;22.658;2023-04-25T14:58:46;1.00;;;0.77;;
7479;SDS011;3781;42.272;22.658;2023-04-25T15:01:13;1.03;;;1.03;;
7479;SDS011;3781;42.272;22.658;2023-04-25T15:03:40;0.00;;;0.00;;
7479;SDS011;3781;42.272;22.658;2023-04-25T15:06:10;0.10;;;0.10;;
7479;SDS011;3781;42.272;22.658;2023-04-25T15:08:37;0.10;;;0.10;;
7479;SDS011;3781;42.272;22.658;2023-04-25T15:11:04;0.00;;;0.00;;
7479;SDS011;3781;42.272;22.658;2023-04-25T15:13:35;0.70;;;0.60;;
7479;SDS011;3781;42.272;22.658;2023-04-25T15:18:31;0.00;;;0.00;;
7479;SDS011;3781;42.272;22.658;2023-04-25T15:20:58;0.10;;;0.10;;